Terminal Aerodrome Forecast
Issued by NWS Blacksburg, VA

Home | Current Version | Previous Version | Text Only | Print | Product List | Glossary On
Versions: 1 2 3 4 5 6 7 8 9 10 11 12 13 14 15 16 17 18 19 20 21 22 23 24 25 26 27 28 29 30
000
FTUS41 KRNK 270235 AAA
TAFDAN
TAF AMD
KDAN 270235Z 2703/2724 36007KT P6SM -SHRA BKN008 OVC015
     FM270330 35008KT P6SM -SHRA SCT015 BKN035 OVC050
     FM270400 33009G17KT P6SM SCT030 BKN040
     FM271300 32011G21KT P6SM SCT040=

USA.gov is the U.S. government's official web portal to all federal, state and local government web resources and services.